No particular awareness of the weather is required.    There are no Weather-warnings


Meteo18 Weather Cam more information Meteo18 Weather Cam


Thunder radar more information blitzortung!


Rain radar more information rain snow radar


Visit our other weather sites:

Template documentation
and downloads

And another site



Weather Underground History page Text

Daily Summary for October 18, 2017 Units:  Both    English   Metric
« Previous Day
Next Day »
Daily Weekly Monthly Yearly Custom
  High: Low: Average:
Temperature: TemperatureC °F /  -17.8 °C 8.7 °F /  -12.9 °C 14.7 °F /  -9.6 °C
Dew Point: DewpointC °F /  -17.8 °C 6.9 °F /  -13.9 °C 10.2 °F /  -12.1 °C
Humidity: Humidity % 50 % 75 %
Wind Speed: WindSpeedKMH mph /  0 km/h - 1.4 mph /  2.3 km/h
Wind Gust: WindSpeedGustKMH mph /  0 km/h - -
Wind:- - ESE
Pressure: PressurehPa in /  0 hPa 1011.4 in /  34246 hPa -
Precipitation: 0.0 in /  0 mm    
Historical Graphs
 
 
Tabular Data for October 18, 2017
Time Temperature Dew Point Pressure Wind Wind Speed Wind Gust Humidity Rainfall Rate (Hourly)
TemperatureC °F /  -17.8 °C DewpointC °F /  -17.8 °C PressurehPa in /  0 hPa Calm     Humidity % HourlyPrecipMM in /  0 mm
00:02 12.3 °F /  -10.9 °C 8.6 °F /  -13 °C 1017.2 in /  34442.4 hPa Calm   4.8 mph /  7.7 km/h 78 % 0.0 in /  0 mm
00:12 11.7 °F /  -11.3 °C 8.2 °F /  -13.2 °C 1017.2 in /  34442.4 hPa Calm   4.8 mph /  7.7 km/h 79 % 0.0 in /  0 mm
00:17 11.2 °F /  -11.6 °C 8.1 °F /  -13.3 °C 1017.2 in /  34442.4 hPa Calm   1.6 mph /  2.6 km/h 81 % 0.0 in /  0 mm
00:22 10.9 °F /  -11.7 °C 8.1 °F /  -13.3 °C 1017.2 in /  34442.4 hPa Calm   1.6 mph /  2.6 km/h 83 % 0.0 in /  0 mm
00:27 10.9 °F /  -11.7 °C 8.3 °F /  -13.2 °C 1017.2 in /  34442.4 hPa Calm   1.6 mph /  2.6 km/h 84 % 0.0 in /  0 mm
00:32 11.0 °F /  -11.7 °C 8.4 °F /  -13.1 °C 1017.2 in /  34442.4 hPa Calm   1.6 mph /  2.6 km/h 84 % 0.0 in /  0 mm
00:42 10.9 °F /  -11.7 °C 8.3 °F /  -13.2 °C 1017.2 in /  34442.4 hPa Calm     84 % 0.0 in /  0 mm
00:52 10.8 °F /  -11.8 °C 8.4 °F /  -13.1 °C 1017.2 in /  34442.4 hPa Calm   1.6 mph /  2.6 km/h 85 % 0.0 in /  0 mm
00:57 10.7 °F /  -11.8 °C 8.3 °F /  -13.2 °C 1017.2 in /  34442.4 hPa Calm   1.6 mph /  2.6 km/h 85 % 0.0 in /  0 mm
01:02 10.5 °F /  -11.9 °C 8.3 °F /  -13.2 °C 1017.2 in /  34442.4 hPa Calm   1.6 mph /  2.6 km/h 86 % 0.0 in /  0 mm
01:07 10.6 °F /  -11.9 °C 8.4 °F /  -13.1 °C 1017.2 in /  34442.4 hPa Calm   1.6 mph /  2.6 km/h 86 % 0.0 in /  0 mm
01:12 10.6 °F /  -11.9 °C 8.4 °F /  -13.1 °C 1017.2 in /  34442.4 hPa Calm   1.6 mph /  2.6 km/h 86 % 0.0 in /  0 mm
01:17 10.6 °F /  -11.9 °C 8.4 °F /  -13.1 °C 1017.2 in /  34442.4 hPa NNE 1.6 mph /  2.6 km/h 1.6 mph /  2.6 km/h 86 % 0.0 in /  0 mm
01:22 10.7 °F /  -11.8 °C 8.5 °F /  -13.1 °C 1017.2 in /  34442.4 hPa Calm   1.6 mph /  2.6 km/h 86 % 0.0 in /  0 mm
01:32 10.7 °F /  -11.8 °C 8.5 °F /  -13.1 °C 1016.8 in /  34428.8 hPa Calm   1.6 mph /  2.6 km/h 86 % 0.0 in /  0 mm
01:37 10.7 °F /  -11.8 °C 8.5 °F /  -13.1 °C 1017.2 in /  34442.4 hPa Calm   1.6 mph /  2.6 km/h 86 % 0.0 in /  0 mm
01:42 10.4 °F /  -12 °C 8.0 °F /  -13.3 °C 1017.2 in /  34442.4 hPa NNE 1.6 mph /  2.6 km/h 1.6 mph /  2.6 km/h 85 % 0.0 in /  0 mm
01:47 10.1 °F /  -12.2 °C 7.9 °F /  -13.4 °C 1017.2 in /  34442.4 hPa Calm   3.2 mph /  5.1 km/h 86 % 0.0 in /  0 mm
01:52 9.9 °F /  -12.3 °C 7.8 °F /  -13.4 °C 1017.2 in /  34442.4 hPa Calm   3.2 mph /  5.1 km/h 87 % 0.0 in /  0 mm
02:02 10.1 °F /  -12.2 °C 8.0 °F /  -13.3 °C 1017.2 in /  34442.4 hPa Calm   4.8 mph /  7.7 km/h 87 % 0.0 in /  0 mm
02:12 9.9 °F /  -12.3 °C 7.8 °F /  -13.4 °C 1017.2 in /  34442.4 hPa WNW 1.6 mph /  2.6 km/h 4.8 mph /  7.7 km/h 87 % 0.0 in /  0 mm
02:17 9.7 °F /  -12.4 °C 7.8 °F /  -13.4 °C 1017.2 in /  34442.4 hPa Calm   1.6 mph /  2.6 km/h 88 % 0.0 in /  0 mm
02:22 9.9 °F /  -12.3 °C 8.2 °F /  -13.2 °C 1017.2 in /  34442.4 hPa Calm   1.6 mph /  2.6 km/h 89 % 0.0 in /  0 mm
02:27 10.1 °F /  -12.2 °C 8.2 °F /  -13.2 °C 1017.2 in /  34442.4 hPa North 1.6 mph /  2.6 km/h 1.6 mph /  2.6 km/h 88 % 0.0 in /  0 mm
02:32 10.2 °F /  -12.1 °C 8.1 °F /  -13.3 °C 1016.8 in /  34428.8 hPa Calm   3.2 mph /  5.1 km/h 87 % 0.0 in /  0 mm
02:42 10.1 °F /  -12.2 °C 8.0 °F /  -13.3 °C 1017.2 in /  34442.4 hPa Calm   3.2 mph /  5.1 km/h 87 % 0.0 in /  0 mm
02:47 9.9 °F /  -12.3 °C 8.0 °F /  -13.3 °C 1016.8 in /  34428.8 hPa Calm   1.6 mph /  2.6 km/h 88 % 0.0 in /  0 mm
02:52 9.8 °F /  -12.3 °C 8.1 °F /  -13.3 °C 1016.8 in /  34428.8 hPa WNW 1.6 mph /  2.6 km/h 1.6 mph /  2.6 km/h 89 % 0.0 in /  0 mm
02:57 9.8 °F /  -12.3 °C 8.2 °F /  -13.2 °C 1017.2 in /  34442.4 hPa WNW 3.2 mph /  5.1 km/h 3.2 mph /  5.1 km/h 90 % 0.0 in /  0 mm
03:02 9.8 °F /  -12.3 °C 8.2 °F /  -13.2 °C 1017.2 in /  34442.4 hPa Calm   3.2 mph /  5.1 km/h 90 % 0.0 in /  0 mm
03:12 10.2 °F /  -12.1 °C 8.5 °F /  -13.1 °C 1016.8 in /  34428.8 hPa Calm   3.2 mph /  5.1 km/h 89 % 0.0 in /  0 mm
03:17 10.2 °F /  -12.1 °C 8.3 °F /  -13.2 °C 1017.2 in /  34442.4 hPa Calm   3.2 mph /  5.1 km/h 88 % 0.0 in /  0 mm
03:22 10.0 °F /  -12.2 °C 8.1 °F /  -13.3 °C 1016.8 in /  34428.8 hPa Calm     88 % 0.0 in /  0 mm
03:27 9.8 °F /  -12.3 °C 8.1 °F /  -13.3 °C 1017.2 in /  34442.4 hPa Calm   1.6 mph /  2.6 km/h 89 % 0.0 in /  0 mm
03:32 9.9 °F /  -12.3 °C 8.3 °F /  -13.2 °C 1017.2 in /  34442.4 hPa Calm   1.6 mph /  2.6 km/h 90 % 0.0 in /  0 mm
03:37 10.0 °F /  -12.2 °C 8.3 °F /  -13.2 °C 1017.2 in /  34442.4 hPa Calm   1.6 mph /  2.6 km/h 89 % 0.0 in /  0 mm
03:42 10.1 °F /  -12.2 °C 8.4 °F /  -13.1 °C 1016.8 in /  34428.8 hPa Calm   1.6 mph /  2.6 km/h 89 % 0.0 in /  0 mm
03:47 10.1 °F /  -12.2 °C 8.2 °F /  -13.2 °C 1017.2 in /  34442.4 hPa Calm   1.6 mph /  2.6 km/h 88 % 0.0 in /  0 mm
03:52 9.9 °F /  -12.3 °C 8.0 °F /  -13.3 °C 1016.8 in /  34428.8 hPa Calm   1.6 mph /  2.6 km/h 88 % 0.0 in /  0 mm
03:57 9.9 °F /  -12.3 °C 8.0 °F /  -13.3 °C 1016.8 in /  34428.8 hPa Calm   1.6 mph /  2.6 km/h 88 % 0.0 in /  0 mm
04:02 10.1 °F /  -12.2 °C 8.0 °F /  -13.3 °C 1016.8 in /  34428.8 hPa Calm   1.6 mph /  2.6 km/h 87 % 0.0 in /  0 mm
04:12 10.2 °F /  -12.1 °C 8.1 °F /  -13.3 °C 1016.8 in /  34428.8 hPa Calm   1.6 mph /  2.6 km/h 87 % 0.0 in /  0 mm
04:17 10.3 °F /  -12.1 °C 8.1 °F /  -13.3 °C 1016.5 in /  34418.7 hPa Calm     86 % 0.0 in /  0 mm
04:22 10.3 °F /  -12.1 °C 7.9 °F /  -13.4 °C 1016.8 in /  34428.8 hPa North 1.6 mph /  2.6 km/h   85 % 0.0 in /  0 mm
04:27 10.2 °F /  -12.1 °C 8.0 °F /  -13.3 °C 1016.5 in /  34418.7 hPa Calm     86 % 0.0 in /  0 mm
04:32 10.3 °F /  -12.1 °C 8.1 °F /  -13.3 °C 1016.5 in /  34418.7 hPa Calm   1.6 mph /  2.6 km/h 86 % 0.0 in /  0 mm
04:37 10.2 °F /  -12.1 °C 8.0 °F /  -13.3 °C 1016.5 in /  34418.7 hPa Calm   1.6 mph /  2.6 km/h 86 % 0.0 in /  0 mm
04:42 10.1 °F /  -12.2 °C 7.9 °F /  -13.4 °C 1016.5 in /  34418.7 hPa Calm   1.6 mph /  2.6 km/h 86 % 0.0 in /  0 mm
04:47 9.9 °F /  -12.3 °C 7.8 °F /  -13.4 °C 1016.5 in /  34418.7 hPa Calm   1.6 mph /  2.6 km/h 87 % 0.0 in /  0 mm
04:52 9.9 °F /  -12.3 °C 7.8 °F /  -13.4 °C 1016.5 in /  34418.7 hPa North 1.6 mph /  2.6 km/h 1.6 mph /  2.6 km/h 87 % 0.0 in /  0 mm
05:02 10.0 °F /  -12.2 °C 7.9 °F /  -13.4 °C 1016.5 in /  34418.7 hPa Calm   1.6 mph /  2.6 km/h 87 % 0.0 in /  0 mm
05:27 9.9 °F /  -12.3 °C 7.7 °F /  -13.5 °C 1016.1 in /  34405.1 hPa Calm   1.6 mph /  2.6 km/h 86 % 0.0 in /  0 mm
05:32 10.2 °F /  -12.1 °C 7.4 °F /  -13.7 °C 1016.1 in /  34405.1 hPa Calm   1.6 mph /  2.6 km/h 83 % 0.0 in /  0 mm
05:37 9.8 °F /  -12.3 °C 7.2 °F /  -13.8 °C 1016.1 in /  34405.1 hPa Calm   1.6 mph /  2.6 km/h 84 % 0.0 in /  0 mm
05:42 9.6 °F /  -12.4 °C 7.4 °F /  -13.7 °C 1016.1 in /  34405.1 hPa Calm   1.6 mph /  2.6 km/h 86 % 0.0 in /  0 mm
05:47 9.6 °F /  -12.4 °C 7.4 °F /  -13.7 °C 1016.1 in /  34405.1 hPa Calm   1.6 mph /  2.6 km/h 86 % 0.0 in /  0 mm
05:57 9.6 °F /  -12.4 °C 7.4 °F /  -13.7 °C 1016.1 in /  34405.1 hPa Calm   1.6 mph /  2.6 km/h 86 % 0.0 in /  0 mm
06:02 9.4 °F /  -12.6 °C 7.2 °F /  -13.8 °C 1016.1 in /  34405.1 hPa Calm   1.6 mph /  2.6 km/h 86 % 0.0 in /  0 mm
06:07 9.7 °F /  -12.4 °C 7.5 °F /  -13.6 °C 1016.1 in /  34405.1 hPa Calm   3.2 mph /  5.1 km/h 86 % 0.0 in /  0 mm
06:12 9.4 °F /  -12.6 °C 7.2 °F /  -13.8 °C 1016.1 in /  34405.1 hPa Calm   3.2 mph /  5.1 km/h 86 % 0.0 in /  0 mm
06:17 9.1 °F /  -12.7 °C 7.1 °F /  -13.8 °C 1016.1 in /  34405.1 hPa NW 1.6 mph /  2.6 km/h 3.2 mph /  5.1 km/h 87 % 0.0 in /  0 mm
06:22 9.2 °F /  -12.7 °C 7.3 °F /  -13.7 °C 1016.1 in /  34405.1 hPa Calm   3.2 mph /  5.1 km/h 88 % 0.0 in /  0 mm
06:32 8.8 °F /  -12.9 °C 7.1 °F /  -13.8 °C 1016.1 in /  34405.1 hPa Calm   3.2 mph /  5.1 km/h 89 % 0.0 in /  0 mm
06:42 9.0 °F /  -12.8 °C 7.1 °F /  -13.8 °C 1016.1 in /  34405.1 hPa WNW 1.6 mph /  2.6 km/h 3.2 mph /  5.1 km/h 88 % 0.0 in /  0 mm
06:47 8.8 °F /  -12.9 °C 7.1 °F /  -13.8 °C 1016.1 in /  34405.1 hPa Calm   1.6 mph /  2.6 km/h 89 % 0.0 in /  0 mm
06:52 9.1 °F /  -12.7 °C 7.2 °F /  -13.8 °C 1015.8 in /  34395 hPa North 1.6 mph /  2.6 km/h 1.6 mph /  2.6 km/h 88 % 0.0 in /  0 mm
06:57 9.0 °F /  -12.8 °C 7.1 °F /  -13.8 °C 1016.1 in /  34405.1 hPa Calm   1.6 mph /  2.6 km/h 88 % 0.0 in /  0 mm
07:02 8.9 °F /  -12.8 °C 6.9 °F /  -13.9 °C 1016.1 in /  34405.1 hPa Calm   1.6 mph /  2.6 km/h 87 % 0.0 in /  0 mm
07:07 8.8 °F /  -12.9 °C 6.9 °F /  -13.9 °C 1015.8 in /  34395 hPa Calm   1.6 mph /  2.6 km/h 88 % 0.0 in /  0 mm
07:12 8.8 °F /  -12.9 °C 7.1 °F /  -13.8 °C 1015.8 in /  34395 hPa Calm   1.6 mph /  2.6 km/h 89 % 0.0 in /  0 mm
07:17 8.9 °F /  -12.8 °C 7.0 °F /  -13.9 °C 1015.8 in /  34395 hPa Calm   1.6 mph /  2.6 km/h 88 % 0.0 in /  0 mm
07:22 8.8 °F /  -12.9 °C 7.1 °F /  -13.8 °C 1015.8 in /  34395 hPa NW 1.6 mph /  2.6 km/h 1.6 mph /  2.6 km/h 89 % 0.0 in /  0 mm
07:32 9.1 °F /  -12.7 °C 6.9 °F /  -13.9 °C 1015.8 in /  34395 hPa Calm   1.6 mph /  2.6 km/h 86 % 0.0 in /  0 mm
07:42 8.8 °F /  -12.9 °C 7.1 °F /  -13.8 °C 1015.8 in /  34395 hPa Calm   1.6 mph /  2.6 km/h 89 % 0.0 in /  0 mm
07:47 8.7 °F /  -12.9 °C 7.2 °F /  -13.8 °C 1015.8 in /  34395 hPa North 1.6 mph /  2.6 km/h 1.6 mph /  2.6 km/h 90 % 0.0 in /  0 mm
07:52 8.9 °F /  -12.8 °C 7.2 °F /  -13.8 °C 1015.8 in /  34395 hPa Calm   1.6 mph /  2.6 km/h 89 % 0.0 in /  0 mm
07:57 8.9 °F /  -12.8 °C 7.2 °F /  -13.8 °C 1015.8 in /  34395 hPa Calm   1.6 mph /  2.6 km/h 89 % 0.0 in /  0 mm
08:02 8.9 °F /  -12.8 °C 7.2 °F /  -13.8 °C 1015.8 in /  34395 hPa Calm   1.6 mph /  2.6 km/h 89 % 0.0 in /  0 mm
08:07 8.9 °F /  -12.8 °C 7.2 °F /  -13.8 °C 1015.8 in /  34395 hPa Calm   1.6 mph /  2.6 km/h 89 % 0.0 in /  0 mm
08:12 8.8 °F /  -12.9 °C 6.9 °F /  -13.9 °C 1015.8 in /  34395 hPa Calm   1.6 mph /  2.6 km/h 88 % 0.0 in /  0 mm
08:22 8.7 °F /  -12.9 °C 7.0 °F /  -13.9 °C 1015.8 in /  34395 hPa Calm   1.6 mph /  2.6 km/h 89 % 0.0 in /  0 mm
08:32 8.8 °F /  -12.9 °C 7.2 °F /  -13.8 °C 1015.8 in /  34395 hPa Calm   3.2 mph /  5.1 km/h 90 % 0.0 in /  0 mm
08:37 8.9 °F /  -12.8 °C 7.3 °F /  -13.7 °C 1016.1 in /  34405.1 hPa Calm   1.6 mph /  2.6 km/h 90 % 0.0 in /  0 mm
08:42 9.1 °F /  -12.7 °C 7.5 °F /  -13.6 °C 1015.8 in /  34395 hPa Calm   1.6 mph /  2.6 km/h 90 % 0.0 in /  0 mm
08:47 9.3 °F /  -12.6 °C 7.6 °F /  -13.6 °C 1016.1 in /  34405.1 hPa Calm   1.6 mph /  2.6 km/h 89 % 0.0 in /  0 mm
08:52 9.4 °F /  -12.6 °C 7.5 °F /  -13.6 °C 1016.1 in /  34405.1 hPa Calm   1.6 mph /  2.6 km/h 88 % 0.0 in /  0 mm
09:02 9.7 °F /  -12.4 °C 7.8 °F /  -13.4 °C 1015.8 in /  34395 hPa Calm   1.6 mph /  2.6 km/h 88 % 0.0 in /  0 mm
09:12 9.9 °F /  -12.3 °C 7.8 °F /  -13.4 °C 1015.8 in /  34395 hPa Calm   1.6 mph /  2.6 km/h 87 % 0.0 in /  0 mm
09:17 10.0 °F /  -12.2 °C 8.3 °F /  -13.2 °C 1016.1 in /  34405.1 hPa Calm   1.6 mph /  2.6 km/h 89 % 0.0 in /  0 mm
09:22 10.3 °F /  -12.1 °C 8.4 °F /  -13.1 °C 1016.1 in /  34405.1 hPa Calm   1.6 mph /  2.6 km/h 88 % 0.0 in /  0 mm
09:32 11.2 °F /  -11.6 °C 8.9 °F /  -12.8 °C 1015.8 in /  34395 hPa Calm     86 % 0.0 in /  0 mm
09:42 12.2 °F /  -11 °C 9.0 °F /  -12.8 °C 1015.8 in /  34395 hPa Calm     81 % 0.0 in /  0 mm
09:47 12.4 °F /  -10.9 °C 8.9 °F /  -12.8 °C 1015.8 in /  34395 hPa Calm   1.6 mph /  2.6 km/h 79 % 0.0 in /  0 mm
09:52 12.8 °F /  -10.7 °C 8.9 °F /  -12.8 °C 1015.8 in /  34395 hPa Calm   1.6 mph /  2.6 km/h 77 % 0.0 in /  0 mm
10:02 13.4 °F /  -10.3 °C 9.3 °F /  -12.6 °C 1015.8 in /  34395 hPa Calm   1.6 mph /  2.6 km/h 76 % 0.0 in /  0 mm
10:07 13.5 °F /  -10.3 °C 9.2 °F /  -12.7 °C 1015.8 in /  34395 hPa East 3.2 mph /  5.1 km/h 3.2 mph /  5.1 km/h 75 % 0.0 in /  0 mm
10:12 13.4 °F /  -10.3 °C 8.9 °F /  -12.8 °C 1015.5 in /  34384.8 hPa Calm   1.6 mph /  2.6 km/h 74 % 0.0 in /  0 mm
10:17 13.7 °F /  -10.2 °C 9.1 °F /  -12.7 °C 1015.5 in /  34384.8 hPa Calm   4.8 mph /  7.7 km/h 74 % 0.0 in /  0 mm
10:22 14.0 °F /  -10 °C 9.4 °F /  -12.6 °C 1015.5 in /  34384.8 hPa Calm   4.8 mph /  7.7 km/h 74 % 0.0 in /  0 mm
10:32 14.6 °F /  -9.7 °C 9.4 °F /  -12.6 °C 1015.5 in /  34384.8 hPa South 1.6 mph /  2.6 km/h 3.2 mph /  5.1 km/h 71 % 0.0 in /  0 mm
10:42 14.5 °F /  -9.7 °C 9.7 °F /  -12.4 °C 1015.5 in /  34384.8 hPa Calm   3.2 mph /  5.1 km/h 73 % 0.0 in /  0 mm
10:52 14.9 °F /  -9.5 °C 9.9 °F /  -12.3 °C 1015.5 in /  34384.8 hPa Calm   4.8 mph /  7.7 km/h 72 % 0.0 in /  0 mm
11:02 15.2 °F /  -9.3 °C 10.0 °F /  -12.2 °C 1015.5 in /  34384.8 hPa SSE 1.6 mph /  2.6 km/h 3.2 mph /  5.1 km/h 71 % 0.0 in /  0 mm
11:07 15.3 °F /  -9.3 °C 10.1 °F /  -12.2 °C 1015.5 in /  34384.8 hPa SE 1.6 mph /  2.6 km/h 6.4 mph /  10.3 km/h 71 % 0.0 in /  0 mm
11:12 15.6 °F /  -9.1 °C 10.4 °F /  -12 °C 1015.5 in /  34384.8 hPa Calm   6.4 mph /  10.3 km/h 71 % 0.0 in /  0 mm
11:17 15.9 °F /  -8.9 °C 10.6 °F /  -11.9 °C 1015.1 in /  34371.3 hPa SE 1.6 mph /  2.6 km/h 4.8 mph /  7.7 km/h 71 % 0.0 in /  0 mm
11:22 16.2 °F /  -8.8 °C 10.7 °F /  -11.8 °C 1015.1 in /  34371.3 hPa SE 1.6 mph /  2.6 km/h 4.8 mph /  7.7 km/h 70 % 0.0 in /  0 mm
11:32 16.3 °F /  -8.7 °C 10.8 °F /  -11.8 °C 1015.1 in /  34371.3 hPa Calm   3.2 mph /  5.1 km/h 70 % 0.0 in /  0 mm
11:42 16.8 °F /  -8.4 °C 11.5 °F /  -11.4 °C 1015.1 in /  34371.3 hPa Calm   4.8 mph /  7.7 km/h 71 % 0.0 in /  0 mm
11:52 17.3 °F /  -8.2 °C 11.3 °F /  -11.5 °C 1015.1 in /  34371.3 hPa South 3.2 mph /  5.1 km/h 4.8 mph /  7.7 km/h 68 % 0.0 in /  0 mm
11:57 17.7 °F /  -7.9 °C 11.7 °F /  -11.3 °C 1015.1 in /  34371.3 hPa SSE 1.6 mph /  2.6 km/h 6.4 mph /  10.3 km/h 68 % 0.0 in /  0 mm
12:02 18.1 °F /  -7.7 °C 11.9 °F /  -11.2 °C 1015.1 in /  34371.3 hPa Calm   6.4 mph /  10.3 km/h 67 % 0.0 in /  0 mm
12:07 18.2 °F /  -7.7 °C 11.5 °F /  -11.4 °C 1014.8 in /  34361.1 hPa SSW 6.4 mph /  10.3 km/h 8.0 mph /  12.9 km/h 65 % 0.0 in /  0 mm
12:12 18.2 °F /  -7.7 °C 12.0 °F /  -11.1 °C 1014.8 in /  34361.1 hPa SSW 3.2 mph /  5.1 km/h 8.0 mph /  12.9 km/h 67 % 0.0 in /  0 mm
12:17 18.5 °F /  -7.5 °C 12.0 °F /  -11.1 °C 1014.8 in /  34361.1 hPa SSW 1.6 mph /  2.6 km/h 9.7 mph /  15.6 km/h 66 % 0.0 in /  0 mm
12:22 18.7 °F /  -7.4 °C 11.8 °F /  -11.2 °C 1014.8 in /  34361.1 hPa Calm   9.7 mph /  15.6 km/h 64 % 0.0 in /  0 mm
12:32 19.1 °F /  -7.2 °C 11.9 °F /  -11.2 °C 1014.8 in /  34361.1 hPa SE 3.2 mph /  5.1 km/h 9.7 mph /  15.6 km/h 63 % 0.0 in /  0 mm
12:42 19.4 °F /  -7 °C 12.2 °F /  -11 °C 1014.8 in /  34361.1 hPa Calm   8.0 mph /  12.9 km/h 63 % 0.0 in /  0 mm
12:47 19.7 °F /  -6.8 °C 12.2 °F /  -11 °C 1014.8 in /  34361.1 hPa Calm   11.3 mph /  18.2 km/h 62 % 0.0 in /  0 mm
12:52 19.7 °F /  -6.8 °C 12.2 °F /  -11 °C 1014.4 in /  34347.6 hPa NNE 4.8 mph /  7.7 km/h 11.3 mph /  18.2 km/h 62 % 0.0 in /  0 mm
12:57 19.7 °F /  -6.8 °C 12.2 °F /  -11 °C 1014.4 in /  34347.6 hPa Calm   8.0 mph /  12.9 km/h 62 % 0.0 in /  0 mm
13:02 19.8 °F /  -6.8 °C 12.6 °F /  -10.8 °C 1014.4 in /  34347.6 hPa Calm   8.0 mph /  12.9 km/h 63 % 0.0 in /  0 mm
13:07 20.2 °F /  -6.6 °C 12.4 °F /  -10.9 °C 1014.4 in /  34347.6 hPa Calm   6.4 mph /  10.3 km/h 61 % 0.0 in /  0 mm
13:12 20.3 °F /  -6.5 °C 12.3 °F /  -10.9 °C 1014.4 in /  34347.6 hPa Calm   6.4 mph /  10.3 km/h 60 % 0.0 in /  0 mm
13:17 20.4 °F /  -6.4 °C 12.4 °F /  -10.9 °C 1014.4 in /  34347.6 hPa Calm   6.4 mph /  10.3 km/h 60 % 0.0 in /  0 mm
13:22 20.6 °F /  -6.3 °C 12.3 °F /  -10.9 °C 1014.4 in /  34347.6 hPa Calm   6.4 mph /  10.3 km/h 59 % 0.0 in /  0 mm
13:32 20.7 °F /  -6.3 °C 12.4 °F /  -10.9 °C 1014.1 in /  34337.4 hPa ENE 1.6 mph /  2.6 km/h 6.4 mph /  10.3 km/h 59 % 0.0 in /  0 mm
13:42 20.7 °F /  -6.3 °C 12.1 °F /  -11.1 °C 1014.1 in /  34337.4 hPa ESE 4.8 mph /  7.7 km/h 4.8 mph /  7.7 km/h 58 % 0.0 in /  0 mm
13:47 20.4 °F /  -6.4 °C 12.1 °F /  -11.1 °C 1014.1 in /  34337.4 hPa ENE 6.4 mph /  10.3 km/h 6.4 mph /  10.3 km/h 59 % 0.0 in /  0 mm
13:57 20.7 °F /  -6.3 °C 12.7 °F /  -10.7 °C 1013.8 in /  34327.3 hPa Calm   8.0 mph /  12.9 km/h 60 % 0.0 in /  0 mm
14:02 20.9 °F /  -6.2 °C 12.3 °F /  -10.9 °C 1013.8 in /  34327.3 hPa ESE 3.2 mph /  5.1 km/h 8.0 mph /  12.9 km/h 58 % 0.0 in /  0 mm
14:12 21.1 °F /  -6.1 °C 12.2 °F /  -11 °C 1013.8 in /  34327.3 hPa Calm   6.4 mph /  10.3 km/h 57 % 0.0 in /  0 mm
14:17 21.7 °F /  -5.7 °C 12.3 °F /  -10.9 °C 1013.4 in /  34313.7 hPa Calm   6.4 mph /  10.3 km/h 55 % 0.0 in /  0 mm
14:22 21.7 °F /  -5.7 °C 12.5 °F /  -10.8 °C 1013.4 in /  34313.7 hPa Calm   6.4 mph /  10.3 km/h 56 % 0.0 in /  0 mm
14:32 22.1 °F /  -5.5 °C 12.6 °F /  -10.8 °C 1013.4 in /  34313.7 hPa NE 1.6 mph /  2.6 km/h 8.0 mph /  12.9 km/h 55 % 0.0 in /  0 mm
14:42 22.3 °F /  -5.4 °C 12.8 °F /  -10.7 °C 1013.1 in /  34303.6 hPa ESE 4.8 mph /  7.7 km/h 8.0 mph /  12.9 km/h 55 % 0.0 in /  0 mm
14:52 22.3 °F /  -5.4 °C 12.5 °F /  -10.8 °C 1013.1 in /  34303.6 hPa SE 3.2 mph /  5.1 km/h 11.3 mph /  18.2 km/h 54 % 0.0 in /  0 mm
15:02 22.4 °F /  -5.3 °C 12.6 °F /  -10.8 °C 1013.1 in /  34303.6 hPa ESE 1.6 mph /  2.6 km/h 11.3 mph /  18.2 km/h 54 % 0.0 in /  0 mm
15:07 22.3 °F /  -5.4 °C 12.0 °F /  -11.1 °C 1013.1 in /  34303.6 hPa Calm   9.7 mph /  15.6 km/h 52 % 0.0 in /  0 mm
15:12 22.4 °F /  -5.3 °C 11.8 °F /  -11.2 °C 1013.1 in /  34303.6 hPa Calm   9.7 mph /  15.6 km/h 51 % 0.0 in /  0 mm
15:17 22.5 °F /  -5.3 °C 12.2 °F /  -11 °C 1013.1 in /  34303.6 hPa SE 1.6 mph /  2.6 km/h 6.4 mph /  10.3 km/h 52 % 0.0 in /  0 mm
15:22 22.3 °F /  -5.4 °C 12.0 °F /  -11.1 °C 1013.1 in /  34303.6 hPa Calm   6.4 mph /  10.3 km/h 52 % 0.0 in /  0 mm
15:32 22.2 °F /  -5.4 °C 11.3 °F /  -11.5 °C 1013.1 in /  34303.6 hPa ESE 6.4 mph /  10.3 km/h 6.4 mph /  10.3 km/h 50 % 0.0 in /  0 mm
15:42 22.2 °F /  -5.4 °C 12.4 °F /  -10.9 °C 1012.8 in /  34293.4 hPa ENE 6.4 mph /  10.3 km/h 6.4 mph /  10.3 km/h 54 % 0.0 in /  0 mm
15:52 21.8 °F /  -5.7 °C 12.6 °F /  -10.8 °C 1012.8 in /  34293.4 hPa ESE 8.0 mph /  12.9 km/h 12.9 mph /  20.8 km/h 56 % 0.0 in /  0 mm
16:02 21.6 °F /  -5.8 °C 12.4 °F /  -10.9 °C 1012.8 in /  34293.4 hPa SSE 4.8 mph /  7.7 km/h 12.9 mph /  20.8 km/h 56 % 0.0 in /  0 mm
16:12 21.7 °F /  -5.7 °C 12.8 °F /  -10.7 °C 1012.8 in /  34293.4 hPa ESE 3.2 mph /  5.1 km/h 11.3 mph /  18.2 km/h 57 % 0.0 in /  0 mm
16:17 21.6 °F /  -5.8 °C 12.7 °F /  -10.7 °C 1012.4 in /  34279.9 hPa East 4.8 mph /  7.7 km/h 14.5 mph /  23.3 km/h 57 % 0.0 in /  0 mm
16:22 21.5 °F /  -5.8 °C 12.9 °F /  -10.6 °C 1012.4 in /  34279.9 hPa SE 8.0 mph /  12.9 km/h 14.5 mph /  23.3 km/h 58 % 0.0 in /  0 mm
16:32 21.4 °F /  -5.9 °C 12.8 °F /  -10.7 °C 1012.4 in /  34279.9 hPa ENE 3.2 mph /  5.1 km/h 14.5 mph /  23.3 km/h 58 % 0.0 in /  0 mm
16:42 21.6 °F /  -5.8 °C 13.0 °F /  -10.6 °C 1012.4 in /  34279.9 hPa ESE 4.8 mph /  7.7 km/h 9.7 mph /  15.6 km/h 58 % 0.0 in /  0 mm
16:47 21.7 °F /  -5.7 °C 12.8 °F /  -10.7 °C 1012.1 in /  34269.7 hPa ENE 8.0 mph /  12.9 km/h 11.3 mph /  18.2 km/h 57 % 0.0 in /  0 mm
16:52 21.7 °F /  -5.7 °C 13.1 °F /  -10.5 °C 1012.1 in /  34269.7 hPa East 3.2 mph /  5.1 km/h 11.3 mph /  18.2 km/h 58 % 0.0 in /  0 mm
17:02 21.9 °F /  -5.6 °C 13.3 °F /  -10.4 °C 1012.1 in /  34269.7 hPa East 4.8 mph /  7.7 km/h 11.3 mph /  18.2 km/h 58 % 0.0 in /  0 mm
17:12 21.9 °F /  -5.6 °C 12.7 °F /  -10.7 °C 1012.1 in /  34269.7 hPa East 3.2 mph /  5.1 km/h 9.7 mph /  15.6 km/h 56 % 0.0 in /  0 mm
17:17 21.8 °F /  -5.7 °C 12.6 °F /  -10.8 °C 1012.1 in /  34269.7 hPa ENE 4.8 mph /  7.7 km/h 8.0 mph /  12.9 km/h 56 % 0.0 in /  0 mm
17:22 21.9 °F /  -5.6 °C 12.7 °F /  -10.7 °C 1012.1 in /  34269.7 hPa ENE 1.6 mph /  2.6 km/h 8.0 mph /  12.9 km/h 56 % 0.0 in /  0 mm
17:32 21.7 °F /  -5.7 °C 12.8 °F /  -10.7 °C 1012.1 in /  34269.7 hPa East 1.6 mph /  2.6 km/h 9.7 mph /  15.6 km/h 57 % 0.0 in /  0 mm
17:42 21.4 °F /  -5.9 °C 12.8 °F /  -10.7 °C 1012.1 in /  34269.7 hPa ESE 1.6 mph /  2.6 km/h 9.7 mph /  15.6 km/h 58 % 0.0 in /  0 mm
17:52 21.2 °F /  -6 °C 12.9 °F /  -10.6 °C 1012.1 in /  34269.7 hPa East 1.6 mph /  2.6 km/h 6.4 mph /  10.3 km/h 59 % 0.0 in /  0 mm
17:57 21.2 °F /  -6 °C 12.9 °F /  -10.6 °C 1012.1 in /  34269.7 hPa East 1.6 mph /  2.6 km/h 6.4 mph /  10.3 km/h 59 % 0.0 in /  0 mm
18:02 21.0 °F /  -6.1 °C 12.7 °F /  -10.7 °C 1012.1 in /  34269.7 hPa ENE 4.8 mph /  7.7 km/h 6.4 mph /  10.3 km/h 59 % 0.0 in /  0 mm
18:12 20.8 °F /  -6.2 °C 12.7 °F /  -10.7 °C 1011.7 in /  34256.2 hPa Calm   6.4 mph /  10.3 km/h 60 % 0.0 in /  0 mm
18:17 20.7 °F /  -6.3 °C 12.9 °F /  -10.6 °C 1011.7 in /  34256.2 hPa East 4.8 mph /  7.7 km/h 8.0 mph /  12.9 km/h 61 % 0.0 in /  0 mm
18:22 20.7 °F /  -6.3 °C 12.9 °F /  -10.6 °C 1012.1 in /  34269.7 hPa Calm   8.0 mph /  12.9 km/h 61 % 0.0 in /  0 mm
18:32 20.6 °F /  -6.3 °C 12.8 °F /  -10.7 °C 1011.7 in /  34256.2 hPa East 1.6 mph /  2.6 km/h 9.7 mph /  15.6 km/h 61 % 0.0 in /  0 mm
18:42 20.3 °F /  -6.5 °C 12.8 °F /  -10.7 °C 1011.7 in /  34256.2 hPa East 6.4 mph /  10.3 km/h 8.0 mph /  12.9 km/h 62 % 0.0 in /  0 mm
18:52 20.1 °F /  -6.6 °C 12.8 °F /  -10.7 °C 1011.7 in /  34256.2 hPa East 1.6 mph /  2.6 km/h 6.4 mph /  10.3 km/h 63 % 0.0 in /  0 mm
18:57 19.9 °F /  -6.7 °C 12.9 °F /  -10.6 °C 1011.7 in /  34256.2 hPa ENE 3.2 mph /  5.1 km/h 8.0 mph /  12.9 km/h 64 % 0.0 in /  0 mm
19:02 19.7 °F /  -6.8 °C 12.9 °F /  -10.6 °C 1011.7 in /  34256.2 hPa ENE 1.6 mph /  2.6 km/h 8.0 mph /  12.9 km/h 65 % 0.0 in /  0 mm
19:12 19.3 °F /  -7.1 °C 12.8 °F /  -10.7 °C 1011.4 in /  34246 hPa ENE 1.6 mph /  2.6 km/h 8.0 mph /  12.9 km/h 66 % 0.0 in /  0 mm
19:17 19.1 °F /  -7.2 °C 12.8 °F /  -10.7 °C 1011.7 in /  34256.2 hPa NE 3.2 mph /  5.1 km/h 8.0 mph /  12.9 km/h 67 % 0.0 in /  0 mm
19:22 18.9 °F /  -7.3 °C 12.9 °F /  -10.6 °C 1011.4 in /  34246 hPa ENE 3.2 mph /  5.1 km/h 8.0 mph /  12.9 km/h 68 % 0.0 in /  0 mm
19:32 18.6 °F /  -7.4 °C 12.8 °F /  -10.7 °C 1011.7 in /  34256.2 hPa NE 4.8 mph /  7.7 km/h 6.4 mph /  10.3 km/h 69 % 0.0 in /  0 mm
19:37 18.4 °F /  -7.6 °C 12.6 °F /  -10.8 °C 1011.7 in /  34256.2 hPa NE 4.8 mph /  7.7 km/h 6.4 mph /  10.3 km/h 69 % 0.0 in /  0 mm
19:42 18.3 °F /  -7.6 °C 12.7 °F /  -10.7 °C 1011.7 in /  34256.2 hPa ENE 4.8 mph /  7.7 km/h 8.0 mph /  12.9 km/h 70 % 0.0 in /  0 mm
19:47 18.1 °F /  -7.7 °C 12.5 °F /  -10.8 °C 1011.7 in /  34256.2 hPa ENE 4.8 mph /  7.7 km/h 8.0 mph /  12.9 km/h 70 % 0.0 in /  0 mm
19:52 17.9 °F /  -7.8 °C 12.6 °F /  -10.8 °C 1011.7 in /  34256.2 hPa ENE 1.6 mph /  2.6 km/h 8.0 mph /  12.9 km/h 71 % 0.0 in /  0 mm
20:02 17.7 °F /  -7.9 °C 12.4 °F /  -10.9 °C 1011.7 in /  34256.2 hPa NE 6.4 mph /  10.3 km/h 8.0 mph /  12.9 km/h 71 % 0.0 in /  0 mm
20:12 17.8 °F /  -7.9 °C 12.5 °F /  -10.8 °C 1011.4 in /  34246 hPa ENE 4.8 mph /  7.7 km/h 8.0 mph /  12.9 km/h 71 % 0.0 in /  0 mm
20:17 17.7 °F /  -7.9 °C 12.4 °F /  -10.9 °C 1011.4 in /  34246 hPa NE 4.8 mph /  7.7 km/h 8.0 mph /  12.9 km/h 71 % 0.0 in /  0 mm
20:22 17.4 °F /  -8.1 °C 12.3 °F /  -10.9 °C 1011.4 in /  34246 hPa NE 3.2 mph /  5.1 km/h 8.0 mph /  12.9 km/h 72 % 0.0 in /  0 mm
20:32 17.3 °F /  -8.2 °C 12.4 °F /  -10.9 °C 1011.7 in /  34256.2 hPa ENE 3.2 mph /  5.1 km/h 8.0 mph /  12.9 km/h 73 % 0.0 in /  0 mm
20:37 17.2 °F /  -8.2 °C 12.3 °F /  -10.9 °C 1011.7 in /  34256.2 hPa ENE 3.2 mph /  5.1 km/h 8.0 mph /  12.9 km/h 73 % 0.0 in /  0 mm
20:42 17.1 °F /  -8.3 °C 12.4 °F /  -10.9 °C 1011.7 in /  34256.2 hPa ENE 6.4 mph /  10.3 km/h 8.0 mph /  12.9 km/h 74 % 0.0 in /  0 mm
20:47 17.1 °F /  -8.3 °C 12.4 °F /  -10.9 °C 1011.7 in /  34256.2 hPa Calm   8.0 mph /  12.9 km/h 74 % 0.0 in /  0 mm
20:52 17.1 °F /  -8.3 °C 12.4 °F /  -10.9 °C 1011.7 in /  34256.2 hPa ENE 6.4 mph /  10.3 km/h 9.7 mph /  15.6 km/h 74 % 0.0 in /  0 mm
20:57 16.9 °F /  -8.4 °C 12.2 °F /  -11 °C 1011.7 in /  34256.2 hPa ENE 6.4 mph /  10.3 km/h 9.7 mph /  15.6 km/h 74 % 0.0 in /  0 mm
21:07 17.0 °F /  -8.3 °C 12.3 °F /  -10.9 °C 1011.7 in /  34256.2 hPa ENE 9.7 mph /  15.6 km/h 11.3 mph /  18.2 km/h 74 % 0.0 in /  0 mm
21:12 17.1 °F /  -8.3 °C 12.4 °F /  -10.9 °C 1011.7 in /  34256.2 hPa ENE 8.0 mph /  12.9 km/h 11.3 mph /  18.2 km/h 74 % 0.0 in /  0 mm
21:22 16.9 °F /  -8.4 °C 12.4 °F /  -10.9 °C 1012.1 in /  34269.7 hPa ESE 1.6 mph /  2.6 km/h 11.3 mph /  18.2 km/h 75 % 0.0 in /  0 mm
21:27 16.9 °F /  -8.4 °C 12.4 °F /  -10.9 °C 1011.7 in /  34256.2 hPa East 4.8 mph /  7.7 km/h 11.3 mph /  18.2 km/h 75 % 0.0 in /  0 mm
21:32 16.8 °F /  -8.4 °C 12.3 °F /  -10.9 °C 1012.1 in /  34269.7 hPa East 1.6 mph /  2.6 km/h 8.0 mph /  12.9 km/h 75 % 0.0 in /  0 mm
21:37 16.7 °F /  -8.5 °C 12.2 °F /  -11 °C 1012.1 in /  34269.7 hPa Calm   6.4 mph /  10.3 km/h 75 % 0.0 in /  0 mm
21:42 16.6 °F /  -8.6 °C 12.4 °F /  -10.9 °C 1012.1 in /  34269.7 hPa Calm   6.4 mph /  10.3 km/h 76 % 0.0 in /  0 mm
21:47 16.3 °F /  -8.7 °C 12.1 °F /  -11.1 °C 1012.1 in /  34269.7 hPa Calm   4.8 mph /  7.7 km/h 76 % 0.0 in /  0 mm
21:57 15.6 °F /  -9.1 °C 12.0 °F /  -11.1 °C 1012.1 in /  34269.7 hPa Calm   1.6 mph /  2.6 km/h 79 % 0.0 in /  0 mm
22:02 15.7 °F /  -9.1 °C 12.1 °F /  -11.1 °C 1012.4 in /  34279.9 hPa Calm   1.6 mph /  2.6 km/h 79 % 0.0 in /  0 mm
22:12 16.1 °F /  -8.8 °C 12.3 °F /  -10.9 °C 1012.1 in /  34269.7 hPa NE 1.6 mph /  2.6 km/h 3.2 mph /  5.1 km/h 78 % 0.0 in /  0 mm
22:17 16.1 °F /  -8.8 °C 12.3 °F /  -10.9 °C 1012.1 in /  34269.7 hPa Calm   3.2 mph /  5.1 km/h 78 % 0.0 in /  0 mm
22:22 16.1 °F /  -8.8 °C 12.3 °F /  -10.9 °C 1012.1 in /  34269.7 hPa Calm   3.2 mph /  5.1 km/h 78 % 0.0 in /  0 mm
22:32 15.8 °F /  -9 °C 12.2 °F /  -11 °C 1012.1 in /  34269.7 hPa East 1.6 mph /  2.6 km/h 3.2 mph /  5.1 km/h 79 % 0.0 in /  0 mm
22:37 15.8 °F /  -9 °C 12.2 °F /  -11 °C 1012.1 in /  34269.7 hPa Calm   4.8 mph /  7.7 km/h 79 % 0.0 in /  0 mm
22:44 15.6 °F /  -9.1 °C 12.0 °F /  -11.1 °C 1012.1 in /  34269.7 hPa Calm   4.8 mph /  7.7 km/h 79 % 0.0 in /  0 mm
22:56 15.3 °F /  -9.3 °C 12.1 °F /  -11.1 °C 1012.4 in /  34279.9 hPa Calm   1.6 mph /  2.6 km/h 81 % 0.0 in /  0 mm
23:02 14.7 °F /  -9.6 °C 11.7 °F /  -11.3 °C 1012.1 in /  34269.7 hPa Calm   1.6 mph /  2.6 km/h 82 % 0.0 in /  0 mm
23:12 14.7 °F /  -9.6 °C 11.7 °F /  -11.3 °C 1012.1 in /  34269.7 hPa Calm   1.6 mph /  2.6 km/h 82 % 0.0 in /  0 mm
23:17 14.8 °F /  -9.6 °C 11.9 °F /  -11.2 °C 1012.1 in /  34269.7 hPa Calm   1.6 mph /  2.6 km/h 83 % 0.0 in /  0 mm
23:22 15.3 °F /  -9.3 °C 12.2 °F /  -11 °C 1012.1 in /  34269.7 hPa Calm   3.2 mph /  5.1 km/h 82 % 0.0 in /  0 mm
23:27 15.3 °F /  -9.3 °C 12.1 °F /  -11.1 °C 1012.1 in /  34269.7 hPa Calm   3.2 mph /  5.1 km/h 81 % 0.0 in /  0 mm
23:32 15.1 °F /  -9.4 °C 11.9 °F /  -11.2 °C 1012.1 in /  34269.7 hPa Calm   3.2 mph /  5.1 km/h 81 % 0.0 in /  0 mm
23:42 14.6 °F /  -9.7 °C 11.7 °F /  -11.3 °C 1012.1 in /  34269.7 hPa Calm   3.2 mph /  5.1 km/h 83 % 0.0 in /  0 mm
23:47 14.5 °F /  -9.7 °C 11.6 °F /  -11.3 °C 1012.1 in /  34269.7 hPa Calm   3.2 mph /  5.1 km/h 83 % 0.0 in /  0 mm
23:52 14.2 °F /  -9.9 °C 11.4 °F /  -11.4 °C 1012.1 in /  34269.7 hPa Calm   3.2 mph /  5.1 km/h 83 % 0.0 in /  0 mm
23:57 14.2 °F /  -9.9 °C 11.7 °F /  -11.3 °C 1012.1 in /  34269.7 hPa Calm   1.6 mph /  2.6 km/h 85 % 0.0 in /  0 mm
Meteo18
Compliments of Weather Underground - 4 mb

Script developed by  Jim McMurry - jmcmurry@mwt.net Adapted for the template by  Wim van der Kuil - Leuven-Template.eu

You find our weather info also at:

European Weather Network

Weather Underground

Equipment we use:

Weather-station
Davis Vue

Weather-program
Meteobridge

Weather-server
Raspberry PI 2 B+

Provider
1 and 1

Davis Vue

Meteobridge

Raspberry PI 2 B+

1 and 1